createdAt,value
2023-05-21T00:00:12.737Z,100652.47
2023-05-21T00:01:34.697Z,100650.50
2023-05-21T00:02:59.165Z,100650.34
2023-05-21T00:04:21.376Z,100650.59
2023-05-21T00:05:47.041Z,100655.28
2023-05-21T00:07:10.263Z,100645.97
2023-05-21T00:08:34.120Z,100655.41
2023-05-21T00:09:56.916Z,100644.16
2023-05-21T00:11:19.826Z,100649.56
2023-05-21T00:12:42.029Z,100643.72
2023-05-21T00:14:05.045Z,100645.94
2023-05-21T00:15:27.900Z,100645.06
2023-05-21T00:16:49.962Z,100646.84
2023-05-21T00:18:12.923Z,100648.03
2023-05-21T00:19:36.618Z,100649.34
2023-05-21T00:20:59.900Z,100648.59
2023-05-21T00:22:22.728Z,100642.59
2023-05-21T00:23:45.464Z,100644.72
2023-05-21T00:25:09.188Z,100643.16
2023-05-21T00:26:32.069Z,100637.97
2023-05-21T00:27:54.604Z,100646.59
2023-05-21T00:29:17.424Z,100651.84
2023-05-21T00:30:41.040Z,100638.78
2023-05-21T00:32:04.245Z,100643.03
2023-05-21T00:33:28.954Z,100644.03
2023-05-21T00:34:50.858Z,100635.13
2023-05-21T00:36:15.380Z,100634.59
2023-05-21T00:37:38.416Z,100635.84
2023-05-21T00:39:00.312Z,100633.56
2023-05-21T00:40:23.650Z,100639.69
2023-05-21T00:41:46.644Z,100636.47
2023-05-21T00:43:10.135Z,100635.44
2023-05-21T00:44:34.512Z,100631.56
2023-05-21T00:45:59.179Z,100632.63
2023-05-21T00:47:22.572Z,100625.19
2023-05-21T00:48:45.966Z,100621.41
2023-05-21T00:50:10.145Z,100621.00
2023-05-21T00:51:34.321Z,100620.06
2023-05-21T00:52:56.542Z,100620.88
2023-05-21T00:54:19.724Z,100619.66
2023-05-21T00:55:42.548Z,100616.50
2023-05-21T00:57:05.780Z,100613.13
2023-05-21T00:58:28.928Z,100618.63
2023-05-21T00:59:53.326Z,100608.56
2023-05-21T01:01:16.204Z,100604.53
2023-05-21T01:02:39.578Z,100604.50
2023-05-21T01:04:01.821Z,100605.34
2023-05-21T01:05:24.884Z,100609.72
2023-05-21T01:06:48.148Z,100610.03
2023-05-21T01:08:10.985Z,100613.78
2023-05-21T01:09:33.850Z,100609.00
2023-05-21T01:10:56.828Z,100611.44
2023-05-21T01:12:21.557Z,100609.59
2023-05-21T01:13:45.629Z,100603.28
2023-05-21T01:15:10.759Z,100610.00
2023-05-21T01:16:32.737Z,100601.78
2023-05-21T01:17:55.883Z,100597.72
2023-05-21T01:19:20.160Z,100596.41
2023-05-21T01:20:48.088Z,100596.69
2023-05-21T01:22:14.735Z,100603.78
2023-05-21T01:23:39.043Z,100608.41
2023-05-21T01:25:02.781Z,100597.50
2023-05-21T01:26:26.367Z,100602.31
2023-05-21T01:27:49.283Z,100598.44
2023-05-21T01:29:13.101Z,100600.84
2023-05-21T01:30:37.181Z,100597.19
2023-05-21T01:32:04.986Z,100591.06
2023-05-21T01:33:34.718Z,100596.31
2023-05-21T01:35:02.053Z,100595.97
2023-05-21T01:36:31.119Z,100601.25
2023-05-21T01:38:05.867Z,100596.19
2023-05-21T01:39:35.277Z,100592.13
2023-05-21T01:41:03.755Z,100590.59
2023-05-21T01:42:27.818Z,100596.19
2023-05-21T01:43:51.347Z,100594.66
2023-05-21T01:45:16.649Z,100590.38
2023-05-21T01:46:38.776Z,100588.84
2023-05-21T01:48:01.943Z,100587.50
2023-05-21T01:49:24.544Z,100590.63
2023-05-21T01:50:48.560Z,100587.38
2023-05-21T01:52:10.606Z,100587.16
2023-05-21T01:53:33.445Z,100596.19
2023-05-21T01:55:00.344Z,100585.78
2023-05-21T01:56:25.954Z,100584.47
2023-05-21T01:57:48.982Z,100590.69
2023-05-21T01:59:11.521Z,100581.72
2023-05-21T02:00:34.619Z,100589.09
2023-05-21T02:01:57.580Z,100592.16
2023-05-21T02:03:21.741Z,100589.47
2023-05-21T02:04:44.246Z,100580.16
2023-05-21T02:06:07.085Z,100586.25
2023-05-21T02:07:29.035Z,100578.00
2023-05-21T02:08:52.036Z,100577.16
2023-05-21T02:10:16.214Z,100577.53
2023-05-21T02:11:39.031Z,100579.69
2023-05-21T02:13:02.084Z,100582.63
2023-05-21T02:14:25.295Z,100581.28
2023-05-21T02:15:48.225Z,100575.63
2023-05-21T02:17:10.313Z,100579.91
2023-05-21T02:18:34.183Z,100579.28
2023-05-21T02:19:56.994Z,100576.53
2023-05-21T02:21:20.616Z,100577.38
2023-05-21T02:22:45.508Z,100583.59
2023-05-21T02:24:08.328Z,100568.41
2023-05-21T02:25:32.786Z,100568.00
2023-05-21T02:26:55.720Z,100572.41
2023-05-21T02:28:17.634Z,100569.28
2023-05-21T02:29:40.482Z,100576.59
2023-05-21T02:31:02.382Z,100577.03
2023-05-21T02:32:25.587Z,100579.66
2023-05-21T02:33:47.522Z,100576.81
2023-05-21T02:35:12.309Z,100579.63
2023-05-21T02:36:36.108Z,100581.31
2023-05-21T02:37:59.566Z,100576.88
2023-05-21T02:39:22.511Z,100574.28
2023-05-21T02:40:45.739Z,100578.59
2023-05-21T02:42:08.576Z,100584.59
2023-05-21T02:43:30.519Z,100586.63
2023-05-21T02:44:53.455Z,100588.38
2023-05-21T02:46:16.395Z,100582.34
2023-05-21T02:47:38.645Z,100582.53
2023-05-21T02:49:01.540Z,100590.38
2023-05-21T02:50:23.738Z,100589.66
2023-05-21T02:51:46.569Z,100589.84
2023-05-21T02:53:09.412Z,100598.94
2023-05-21T02:54:32.226Z,100582.94
2023-05-21T02:55:56.441Z,100589.66
2023-05-21T02:57:18.395Z,100590.78
2023-05-21T02:58:41.708Z,100594.31
2023-05-21T03:00:05.907Z,100588.03
2023-05-21T03:01:29.293Z,100593.00
2023-05-21T03:02:51.300Z,100591.31
2023-05-21T03:04:14.211Z,100595.06
2023-05-21T03:05:36.348Z,100594.75
2023-05-21T03:07:02.140Z,100602.28
2023-05-21T03:08:25.307Z,100601.47
2023-05-21T03:09:48.296Z,100601.69
2023-05-21T03:11:12.468Z,100593.13
2023-05-21T03:12:34.349Z,100594.75
2023-05-21T03:13:57.154Z,100594.25
2023-05-21T03:15:24.237Z,100588.22
2023-05-21T03:16:47.233Z,100596.19
2023-05-21T03:18:10.150Z,100592.84
2023-05-21T03:19:34.499Z,100592.34
2023-05-21T03:20:58.975Z,100584.59
2023-05-21T03:22:21.587Z,100587.53
2023-05-21T03:23:44.418Z,100589.25
2023-05-21T03:25:06.962Z,100590.28
2023-05-21T03:26:31.107Z,100593.66
2023-05-21T03:27:53.885Z,100593.00
2023-05-21T03:29:15.831Z,100591.41
2023-05-21T03:30:39.178Z,100589.03
2023-05-21T03:32:02.837Z,100589.34
2023-05-21T03:33:25.944Z,100594.25
2023-05-21T03:34:47.869Z,100584.56
2023-05-21T03:36:10.828Z,100590.91
2023-05-21T03:37:32.730Z,100588.31
2023-05-21T03:38:55.557Z,100589.06
2023-05-21T03:40:18.391Z,100586.41
2023-05-21T03:41:42.641Z,100592.13
2023-05-21T03:43:04.602Z,100585.41
2023-05-21T03:44:27.940Z,100583.97
2023-05-21T03:45:49.905Z,100586.72
2023-05-21T03:47:12.720Z,100590.59
2023-05-21T03:48:35.589Z,100588.03
2023-05-21T03:49:57.488Z,100592.53
2023-05-21T03:51:20.983Z,100586.84
2023-05-21T03:52:42.837Z,100588.25
2023-05-21T03:54:05.757Z,100583.66
2023-05-21T03:55:29.408Z,100581.44
2023-05-21T03:56:52.585Z,100589.16
2023-05-21T03:58:15.546Z,100588.88
2023-05-21T03:59:37.494Z,100590.06
2023-05-21T04:01:01.810Z,100578.69
2023-05-21T04:02:26.637Z,100587.00
2023-05-21T04:03:48.866Z,100597.19
2023-05-21T04:05:11.807Z,100593.94
2023-05-21T04:06:34.726Z,100599.22
2023-05-21T04:07:58.755Z,100594.16
2023-05-21T04:09:21.144Z,100596.41
2023-05-21T04:10:43.933Z,100587.84
2023-05-21T04:12:07.954Z,100593.94
2023-05-21T04:13:30.785Z,100590.38
2023-05-21T04:14:53.635Z,100597.41
2023-05-21T04:16:19.559Z,100594.53
2023-05-21T04:17:42.518Z,100599.66
2023-05-21T04:19:04.459Z,100598.13
2023-05-21T04:20:27.291Z,100603.81
2023-05-21T04:21:50.085Z,100598.44
2023-05-21T04:23:12.958Z,100599.66
2023-05-21T04:24:38.102Z,100597.63
2023-05-21T04:26:00.043Z,100599.56
2023-05-21T04:27:24.638Z,100594.88
2023-05-21T04:28:46.541Z,100595.78
2023-05-21T04:30:10.049Z,100598.69
2023-05-21T04:31:32.276Z,100595.38
2023-05-21T04:32:55.413Z,100596.31
2023-05-21T04:34:17.875Z,100598.22
2023-05-21T04:35:44.612Z,100598.00
2023-05-21T04:37:07.819Z,100602.97
2023-05-21T04:38:30.180Z,100595.97
2023-05-21T04:39:53.527Z,100603.78
2023-05-21T04:41:15.435Z,100602.91
2023-05-21T04:42:41.209Z,100605.84
2023-05-21T04:44:05.841Z,100602.59
2023-05-21T04:45:29.415Z,100597.78
2023-05-21T04:46:52.565Z,100606.34
2023-05-21T04:48:15.800Z,100597.00
2023-05-21T04:49:38.697Z,100601.69
2023-05-21T04:51:00.578Z,100590.59
2023-05-21T04:52:25.030Z,100601.47
2023-05-21T04:53:48.061Z,100602.44
2023-05-21T04:55:11.206Z,100596.72
2023-05-21T04:56:34.138Z,100605.66
2023-05-21T04:57:58.353Z,100606.22
2023-05-21T04:59:21.150Z,100596.78
2023-05-21T05:00:46.708Z,100601.06
2023-05-21T05:02:09.673Z,100601.94
2023-05-21T05:03:31.609Z,100592.28
2023-05-21T05:04:54.415Z,100601.22
2023-05-21T05:06:17.648Z,100601.47
2023-05-21T05:07:39.550Z,100593.72
2023-05-21T05:09:02.404Z,100600.25
2023-05-21T05:10:24.478Z,100598.59
2023-05-21T05:11:47.254Z,100591.13
2023-05-21T05:13:12.556Z,100598.69
2023-05-21T05:14:35.656Z,100595.25
2023-05-21T05:15:58.480Z,100601.19
2023-05-21T05:17:21.371Z,100606.69
2023-05-21T05:18:44.156Z,100600.56
2023-05-21T05:20:08.469Z,100593.69
2023-05-21T05:21:31.850Z,100588.31
2023-05-21T05:22:54.696Z,100594.31
2023-05-21T05:24:17.523Z,100586.63
2023-05-21T05:25:40.503Z,100590.81
2023-05-21T05:27:03.335Z,100591.44
2023-05-21T05:28:27.481Z,100591.66
2023-05-21T05:29:49.370Z,100597.56
2023-05-21T05:31:12.195Z,100591.66
2023-05-21T05:32:34.154Z,100582.69
2023-05-21T05:33:57.581Z,100588.44
2023-05-21T05:35:20.521Z,100590.84
2023-05-21T05:36:42.379Z,100590.13
2023-05-21T05:38:05.219Z,100597.78
2023-05-21T05:39:27.091Z,100590.50
2023-05-21T05:40:49.993Z,100587.59
2023-05-21T05:42:11.909Z,100580.50
2023-05-21T05:43:36.039Z,100584.53
2023-05-21T05:44:58.854Z,100582.97
2023-05-21T05:46:21.669Z,100579.69
2023-05-21T05:47:43.552Z,100579.53
2023-05-21T05:49:06.469Z,100571.66
2023-05-21T05:50:29.405Z,100575.44
2023-05-21T05:51:52.336Z,100575.94
2023-05-21T05:53:14.660Z,100577.44
2023-05-21T05:54:37.469Z,100581.97
2023-05-21T05:56:00.530Z,100583.50
2023-05-21T05:57:22.442Z,100579.56
2023-05-21T05:58:46.585Z,100586.56
2023-05-21T06:00:10.488Z,100579.69
2023-05-21T06:01:34.430Z,100583.28
2023-05-21T06:02:57.319Z,100586.94
2023-05-21T06:04:19.208Z,100588.81
2023-05-21T06:05:42.079Z,100594.94
2023-05-21T06:07:05.278Z,100590.56
2023-05-21T06:08:27.271Z,100597.13
2023-05-21T06:09:50.106Z,100589.25
2023-05-21T06:11:12.067Z,100595.28
2023-05-21T06:12:35.200Z,100599.00
2023-05-21T06:14:00.863Z,100591.72
2023-05-21T06:15:23.710Z,100594.00
2023-05-21T06:16:46.741Z,100599.56
2023-05-21T06:18:09.660Z,100595.22
2023-05-21T06:19:32.534Z,100599.56
2023-05-21T06:20:54.503Z,100599.22
2023-05-21T06:22:17.370Z,100602.69
2023-05-21T06:23:40.264Z,100600.69
2023-05-21T06:25:02.108Z,100593.41
2023-05-21T06:26:24.973Z,100599.94
2023-05-21T06:27:47.803Z,100594.59
2023-05-21T06:29:14.204Z,100589.81
2023-05-21T06:30:38.140Z,100590.38
2023-05-21T06:32:00.190Z,100587.94
2023-05-21T06:33:23.292Z,100589.81
2023-05-21T06:34:46.832Z,100593.19
2023-05-21T06:36:09.949Z,100600.84
2023-05-21T06:37:32.826Z,100593.44
2023-05-21T06:38:55.634Z,100594.53
2023-05-21T06:40:18.436Z,100592.09
2023-05-21T06:41:40.634Z,100596.53
2023-05-21T06:43:05.204Z,100596.13
2023-05-21T06:44:29.433Z,100591.78
2023-05-21T06:45:52.442Z,100586.88
2023-05-21T06:47:15.406Z,100585.09
2023-05-21T06:48:37.299Z,100591.25
2023-05-21T06:50:01.118Z,100590.78
2023-05-21T06:51:23.955Z,100594.38
2023-05-21T06:52:47.243Z,100579.19
2023-05-21T06:54:10.121Z,100577.44
2023-05-21T06:55:32.967Z,100576.47
2023-05-21T06:56:55.373Z,100577.59
2023-05-21T06:58:18.204Z,100585.22
2023-05-21T06:59:42.528Z,100578.88
2023-05-21T07:01:04.635Z,100581.97
2023-05-21T07:02:27.528Z,100576.41
2023-05-21T07:03:50.662Z,100578.97
2023-05-21T07:05:13.466Z,100569.16
2023-05-21T07:06:35.995Z,100571.97
2023-05-21T07:07:58.804Z,100581.81
2023-05-21T07:09:21.600Z,100575.66
2023-05-21T07:10:44.429Z,100575.16
2023-05-21T07:12:07.945Z,100573.69
2023-05-21T07:13:30.837Z,100571.22
2023-05-21T07:14:55.360Z,100568.88
2023-05-21T07:16:19.002Z,100567.56
2023-05-21T07:17:41.850Z,100569.84
2023-05-21T07:19:04.687Z,100567.81
2023-05-21T07:20:27.530Z,100571.97
2023-05-21T07:21:50.601Z,100564.91
2023-05-21T07:23:12.549Z,100575.06
2023-05-21T07:24:35.395Z,100568.69
2023-05-21T07:25:58.266Z,100567.56
2023-05-21T07:27:25.715Z,100561.59
2023-05-21T07:28:49.097Z,100561.88
2023-05-21T07:30:16.059Z,100559.19
2023-05-21T07:31:39.151Z,100565.53
2023-05-21T07:33:02.207Z,100561.34
2023-05-21T07:34:25.473Z,100562.19
2023-05-21T07:35:48.524Z,100561.28
2023-05-21T07:37:11.357Z,100559.75
2023-05-21T07:38:34.556Z,100568.09
2023-05-21T07:39:58.391Z,100559.38
2023-05-21T07:41:22.020Z,100562.25
2023-05-21T07:42:44.821Z,100565.78
2023-05-21T07:44:10.977Z,100570.13
2023-05-21T07:45:35.280Z,100558.56
2023-05-21T07:46:58.735Z,100558.16
2023-05-21T07:48:21.604Z,100562.72
2023-05-21T07:49:44.456Z,100559.53
2023-05-21T07:51:07.576Z,100560.72
2023-05-21T07:52:30.501Z,100554.13
2023-05-21T07:53:55.292Z,100549.72
2023-05-21T07:55:18.356Z,100556.31
2023-05-21T07:56:41.139Z,100545.91
2023-05-21T07:58:03.042Z,100552.03
2023-05-21T07:59:25.920Z,100548.34
2023-05-21T08:00:51.036Z,100545.44
2023-05-21T08:02:14.351Z,100547.88
2023-05-21T08:03:37.318Z,100546.59
2023-05-21T08:05:01.557Z,100540.00
2023-05-21T08:06:24.434Z,100550.50
2023-05-21T08:07:47.667Z,100541.81
2023-05-21T08:09:10.458Z,100542.25
2023-05-21T08:10:33.273Z,100538.31
2023-05-21T08:11:56.112Z,100534.00
2023-05-21T08:13:18.220Z,100538.25
2023-05-21T08:14:41.513Z,100537.78
2023-05-21T08:16:06.912Z,100530.41
2023-05-21T08:17:29.770Z,100526.38
2023-05-21T08:18:52.765Z,100533.72
2023-05-21T08:20:15.153Z,100534.00
2023-05-21T08:21:37.998Z,100529.72
2023-05-21T08:23:01.118Z,100531.34
2023-05-21T08:24:26.354Z,100521.44
2023-05-21T08:25:49.160Z,100522.78
2023-05-21T08:27:11.777Z,100530.06
2023-05-21T08:28:35.639Z,100520.09
2023-05-21T08:29:58.453Z,100528.63
2023-05-21T08:31:22.770Z,100521.09
2023-05-21T08:32:44.762Z,100527.28
2023-05-21T08:34:07.826Z,100517.78
2023-05-21T08:35:30.697Z,100527.63
2023-05-21T08:36:53.834Z,100518.41
2023-05-21T08:38:17.655Z,100517.41
2023-05-21T08:39:40.566Z,100511.31
2023-05-21T08:41:09.886Z,100518.28
2023-05-21T08:42:40.318Z,100518.22
2023-05-21T08:44:03.905Z,100508.75
2023-05-21T08:45:27.934Z,100502.84
2023-05-21T08:46:55.996Z,100509.94
2023-05-21T08:48:19.365Z,100506.06
2023-05-21T08:49:43.352Z,100511.63
2023-05-21T08:51:07.137Z,100506.59
2023-05-21T08:52:29.145Z,100506.28
2023-05-21T08:53:52.237Z,100513.81
2023-05-21T08:55:15.484Z,100513.56
2023-05-21T08:56:40.752Z,100514.28
2023-05-21T08:58:05.247Z,100513.59
2023-05-21T08:59:28.217Z,100507.25
2023-05-21T09:00:51.357Z,100507.38
2023-05-21T09:02:15.279Z,100509.38
2023-05-21T09:03:41.082Z,100502.69
2023-05-21T09:05:05.580Z,100504.94
2023-05-21T09:06:27.842Z,100503.91
2023-05-21T09:07:56.953Z,100498.88
2023-05-21T09:09:28.854Z,100501.09
2023-05-21T09:10:53.289Z,100497.47
2023-05-21T09:12:16.386Z,100502.47
2023-05-21T09:13:39.714Z,100499.47
2023-05-21T09:15:02.995Z,100493.84
2023-05-21T09:16:25.847Z,100494.88
2023-05-21T09:17:50.132Z,100502.31
2023-05-21T09:19:13.039Z,100501.56
2023-05-21T09:20:36.276Z,100504.03
2023-05-21T09:22:02.277Z,100509.19
2023-05-21T09:23:25.178Z,100503.38
2023-05-21T09:24:47.915Z,100509.00
2023-05-21T09:26:13.808Z,100504.56
2023-05-21T09:27:36.096Z,100495.97
2023-05-21T09:29:01.115Z,100502.66
2023-05-21T09:30:26.794Z,100497.53
2023-05-21T09:31:50.763Z,100499.31
2023-05-21T09:33:25.867Z,100495.81
2023-05-21T09:34:49.096Z,100498.47
2023-05-21T09:36:12.053Z,100482.25
2023-05-21T09:37:38.440Z,100485.34
2023-05-21T09:39:01.843Z,100492.13
2023-05-21T09:40:25.388Z,100492.41
2023-05-21T09:41:48.471Z,100480.97
2023-05-21T09:43:14.931Z,100485.19
2023-05-21T09:44:37.778Z,100481.41
2023-05-21T09:46:01.925Z,100484.28
2023-05-21T09:47:25.344Z,100483.09
2023-05-21T09:48:49.511Z,100486.78
2023-05-21T09:50:14.395Z,100487.88
2023-05-21T09:51:38.685Z,100481.63
2023-05-21T09:53:01.500Z,100488.56
2023-05-21T09:54:24.869Z,100481.25
2023-05-21T09:55:48.800Z,100491.22
2023-05-21T09:57:11.619Z,100476.59
2023-05-21T09:58:34.493Z,100483.13
2023-05-21T09:59:57.393Z,100480.84
2023-05-21T10:01:19.949Z,100469.97
2023-05-21T10:02:45.958Z,100470.22
2023-05-21T10:04:10.917Z,100475.81
2023-05-21T10:05:34.690Z,100466.16
2023-05-21T10:06:59.401Z,100465.53
2023-05-21T10:08:26.470Z,100465.66
2023-05-21T10:09:49.833Z,100468.69
2023-05-21T10:11:13.198Z,100465.19
2023-05-21T10:12:36.901Z,100463.44
2023-05-21T10:14:06.229Z,100462.97
2023-05-21T10:15:33.207Z,100459.63
2023-05-21T10:16:57.292Z,100457.41
2023-05-21T10:18:21.584Z,100459.19
2023-05-21T10:19:47.588Z,100464.66
2023-05-21T10:21:10.701Z,100450.44
2023-05-21T10:22:34.002Z,100445.09
2023-05-21T10:23:57.643Z,100445.19
2023-05-21T10:25:21.726Z,100443.19
2023-05-21T10:26:45.602Z,100448.41
2023-05-21T10:28:08.464Z,100447.88
2023-05-21T10:29:32.296Z,100442.53
2023-05-21T10:30:55.401Z,100445.88
2023-05-21T10:32:17.384Z,100442.41
2023-05-21T10:33:42.107Z,100440.72
2023-05-21T10:35:08.509Z,100450.78
2023-05-21T10:36:32.001Z,100440.66
2023-05-21T10:37:55.448Z,100432.41
2023-05-21T10:39:20.810Z,100440.81
2023-05-21T10:40:43.690Z,100434.28
2023-05-21T10:42:25.653Z,100433.59
2023-05-21T10:44:02.692Z,100441.44
2023-05-21T10:45:33.610Z,100437.41
2023-05-21T10:47:14.861Z,100431.06
2023-05-21T10:48:46.516Z,100426.16
2023-05-21T10:50:44.726Z,100427.31
2023-05-21T10:52:20.073Z,100427.56
2023-05-21T10:53:55.604Z,100430.28
2023-05-21T10:55:31.781Z,100427.44
2023-05-21T10:57:07.657Z,100429.63
2023-05-21T10:58:52.497Z,100421.56
2023-05-21T11:00:16.081Z,100428.84
2023-05-21T11:01:40.555Z,100425.63
2023-05-21T11:03:05.366Z,100426.69
2023-05-21T11:04:28.712Z,100419.44
2023-05-21T11:05:57.191Z,100426.34
2023-05-21T11:07:24.650Z,100412.72
2023-05-21T11:08:49.064Z,100414.22
2023-05-21T11:10:30.156Z,100419.59
2023-05-21T11:11:54.510Z,100419.59
2023-05-21T11:13:17.186Z,100413.56
2023-05-21T11:14:42.848Z,100407.97
2023-05-21T11:16:08.277Z,100416.00
2023-05-21T11:17:39.237Z,100411.97
2023-05-21T11:19:02.194Z,100420.34
2023-05-21T11:20:35.302Z,100414.00
2023-05-21T11:21:59.609Z,100409.97
2023-05-21T11:23:22.412Z,100414.38
2023-05-21T11:24:45.311Z,100417.41
2023-05-21T11:26:07.207Z,100418.81
2023-05-21T11:27:34.804Z,100416.13
2023-05-21T11:29:09.423Z,100415.16
2023-05-21T11:30:34.490Z,100397.56
2023-05-21T11:32:01.647Z,100402.75
2023-05-21T11:33:24.480Z,100402.00
2023-05-21T11:34:47.814Z,100407.19
2023-05-21T11:36:13.761Z,100403.19
2023-05-21T11:37:41.565Z,100401.56
2023-05-21T11:39:10.817Z,100401.19
2023-05-21T11:40:33.694Z,100405.97
2023-05-21T11:41:57.986Z,100404.78
2023-05-21T11:43:20.804Z,100404.78
2023-05-21T11:44:44.042Z,100402.78
2023-05-21T11:46:07.136Z,100402.75
2023-05-21T11:47:29.907Z,100405.59
2023-05-21T11:48:53.794Z,100396.31
2023-05-21T11:50:17.637Z,100399.53
2023-05-21T11:51:40.572Z,100390.28
2023-05-21T11:53:07.578Z,100390.97
2023-05-21T11:54:34.058Z,100403.94
2023-05-21T11:55:57.705Z,100400.81
2023-05-21T11:57:19.931Z,100397.97
2023-05-21T11:58:43.534Z,100398.69
2023-05-21T12:00:14.077Z,100399.56
2023-05-21T12:01:36.973Z,100406.25
2023-05-21T12:03:00.184Z,100403.56
2023-05-21T12:04:22.413Z,100402.38
2023-05-21T12:05:46.211Z,100405.50
2023-05-21T12:07:09.048Z,100401.59
2023-05-21T12:08:33.253Z,100398.78
2023-05-21T12:09:55.719Z,100395.06
2023-05-21T12:11:18.883Z,100395.59
2023-05-21T12:12:54.030Z,100400.78
2023-05-21T12:14:19.122Z,100401.16
2023-05-21T12:15:42.021Z,100401.59
2023-05-21T12:17:05.026Z,100400.69
2023-05-21T12:18:27.981Z,100390.75
2023-05-21T12:19:53.074Z,100401.56
2023-05-21T12:21:16.294Z,100395.56
2023-05-21T12:22:44.046Z,100393.53
2023-05-21T12:24:07.443Z,100394.34
2023-05-21T12:25:32.045Z,100398.38
2023-05-21T12:26:55.257Z,100396.72
2023-05-21T12:28:18.316Z,100395.13
2023-05-21T12:29:43.341Z,100386.19
2023-05-21T12:31:05.628Z,100394.00
2023-05-21T12:32:28.811Z,100382.88
2023-05-21T12:33:51.563Z,100389.00
2023-05-21T12:35:32.794Z,100383.88
2023-05-21T12:36:54.784Z,100389.53
2023-05-21T12:38:17.602Z,100394.75
2023-05-21T12:39:46.724Z,100391.94
2023-05-21T12:41:08.654Z,100393.06
2023-05-21T12:42:35.047Z,100395.94
2023-05-21T12:43:58.551Z,100393.97
2023-05-21T12:45:22.786Z,100400.34
2023-05-21T12:46:44.773Z,100393.09
2023-05-21T12:48:08.109Z,100385.97
2023-05-21T12:49:38.655Z,100393.16
2023-05-21T12:51:01.710Z,100402.69
2023-05-21T12:52:25.612Z,100392.59
2023-05-21T12:53:48.064Z,100397.94
2023-05-21T12:55:14.286Z,100394.28
2023-05-21T12:56:44.987Z,100399.78
2023-05-21T12:58:09.017Z,100394.72
2023-05-21T12:59:45.100Z,100392.34
2023-05-21T13:01:08.940Z,100391.97
2023-05-21T13:02:33.289Z,100387.53
2023-05-21T13:03:56.619Z,100388.25
2023-05-21T13:05:20.113Z,100384.72
2023-05-21T13:06:42.834Z,100382.75
2023-05-21T13:08:06.101Z,100386.75
2023-05-21T13:09:28.092Z,100383.13
2023-05-21T13:10:52.316Z,100376.66
2023-05-21T13:12:15.332Z,100375.41
2023-05-21T13:13:38.201Z,100381.94
2023-05-21T13:15:03.737Z,100379.47
2023-05-21T13:16:26.628Z,100381.53
2023-05-21T13:17:50.822Z,100373.50
2023-05-21T13:19:15.328Z,100375.13
2023-05-21T13:20:38.616Z,100372.25
2023-05-21T13:22:01.689Z,100372.72
2023-05-21T13:23:24.783Z,100379.91
2023-05-21T13:24:47.990Z,100370.34
2023-05-21T13:26:12.135Z,100377.06
2023-05-21T13:27:34.963Z,100375.53
2023-05-21T13:28:56.833Z,100373.53
2023-05-21T13:30:20.722Z,100375.53
2023-05-21T13:31:43.927Z,100367.09
2023-05-21T13:33:07.326Z,100365.94
2023-05-21T13:34:30.259Z,100371.53
2023-05-21T13:35:53.179Z,100367.50
2023-05-21T13:37:15.152Z,100367.94
2023-05-21T13:38:38.101Z,100363.94
2023-05-21T13:40:00.965Z,100356.31
2023-05-21T13:41:25.146Z,100365.13
2023-05-21T13:42:49.915Z,100370.31
2023-05-21T13:44:12.757Z,100367.13
2023-05-21T13:45:35.791Z,100365.13
2023-05-21T13:46:58.793Z,100366.31
2023-05-21T13:48:21.838Z,100352.69
2023-05-21T13:49:44.669Z,100354.72
2023-05-21T13:51:07.500Z,100361.13
2023-05-21T13:52:30.304Z,100363.94
2023-05-21T13:53:54.059Z,100367.09
2023-05-21T13:55:18.885Z,100362.72
2023-05-21T13:56:43.130Z,100360.75
2023-05-21T13:58:06.312Z,100357.50
2023-05-21T13:59:28.689Z,100356.31
2023-05-21T14:00:52.105Z,100363.13
2023-05-21T14:02:15.033Z,100358.28
2023-05-21T14:03:37.971Z,100355.91
2023-05-21T14:05:00.852Z,100358.72
2023-05-21T14:06:23.698Z,100359.09
2023-05-21T14:07:48.259Z,100359.53
2023-05-21T14:09:11.142Z,100355.91
2023-05-21T14:10:34.030Z,100361.91
2023-05-21T14:11:58.752Z,100360.72
2023-05-21T14:13:21.594Z,100357.13
2023-05-21T14:14:44.411Z,100359.13
2023-05-21T14:16:08.332Z,100360.34
2023-05-21T14:17:31.186Z,100364.72
2023-05-21T14:18:53.424Z,100359.13
2023-05-21T14:20:16.257Z,100359.53
2023-05-21T14:21:39.094Z,100360.72
2023-05-21T14:23:01.895Z,100347.13
2023-05-21T14:24:24.707Z,100359.38
2023-05-21T14:25:47.498Z,100365.84
2023-05-21T14:27:13.856Z,100355.91
2023-05-21T14:28:38.063Z,100351.09
2023-05-21T14:30:00.940Z,100352.69
2023-05-21T14:31:25.089Z,100359.09
2023-05-21T14:32:47.985Z,100361.09
2023-05-21T14:34:10.815Z,100355.09
2023-05-21T14:35:35.803Z,100357.53
2023-05-21T14:36:58.765Z,100359.50
2023-05-21T14:38:21.610Z,100369.53
2023-05-21T14:39:44.550Z,100366.34
2023-05-21T14:41:07.353Z,100364.72
2023-05-21T14:42:32.072Z,100363.50
2023-05-21T14:43:55.046Z,100367.13
2023-05-21T14:45:19.443Z,100361.91
2023-05-21T14:46:41.853Z,100360.66
2023-05-21T14:48:08.567Z,100365.50
2023-05-21T14:49:31.563Z,100361.47
2023-05-21T14:50:54.956Z,100366.69
2023-05-21T14:52:17.877Z,100369.06
2023-05-21T14:53:41.269Z,100367.13
2023-05-21T14:55:04.292Z,100365.53
2023-05-21T14:56:28.142Z,100367.09
2023-05-21T14:57:52.387Z,100361.50
2023-05-21T14:59:15.260Z,100354.72
2023-05-21T15:00:39.178Z,100353.09
2023-05-21T15:02:02.284Z,100361.50
2023-05-21T15:03:25.362Z,100359.09
2023-05-21T15:04:48.288Z,100363.91
2023-05-21T15:06:11.302Z,100361.94
2023-05-21T15:07:34.150Z,100365.09
2023-05-21T15:08:56.266Z,100369.53
2023-05-21T15:10:19.228Z,100363.88
2023-05-21T15:11:41.149Z,100363.94
2023-05-21T15:13:05.504Z,100360.28
2023-05-21T15:14:27.734Z,100365.53
2023-05-21T15:15:51.097Z,100359.81
2023-05-21T15:17:14.036Z,100361.47
2023-05-21T15:18:36.938Z,100357.06
2023-05-21T15:20:01.414Z,100357.94
2023-05-21T15:21:26.511Z,100350.31
2023-05-21T15:22:51.454Z,100358.31
2023-05-21T15:24:15.353Z,100360.63
2023-05-21T15:25:38.351Z,100352.25
2023-05-21T15:27:01.358Z,100359.06
2023-05-21T15:28:25.727Z,100358.25
2023-05-21T15:29:49.351Z,100353.44
2023-05-21T15:31:12.468Z,100347.03
2023-05-21T15:32:35.467Z,100353.88
2023-05-21T15:33:59.074Z,100349.88
2023-05-21T15:35:23.424Z,100345.88
2023-05-21T15:36:46.442Z,100356.25
2023-05-21T15:38:09.310Z,100351.03
2023-05-21T15:39:32.169Z,100355.06
2023-05-21T15:40:54.971Z,100351.66
2023-05-21T15:42:17.891Z,100352.81
2023-05-21T15:43:42.243Z,100358.16
2023-05-21T15:45:05.814Z,100355.63
2023-05-21T15:46:27.700Z,100354.00
2023-05-21T15:47:50.627Z,100355.88
2023-05-21T15:49:13.451Z,100353.16
2023-05-21T15:50:37.621Z,100355.16
2023-05-21T15:52:00.819Z,100352.47
2023-05-21T15:53:23.627Z,100356.00
2023-05-21T15:54:46.842Z,100357.16
2023-05-21T15:56:09.952Z,100353.06
2023-05-21T15:57:32.817Z,100354.66